sensor_id;sensor_type;location;lat;lon;timestamp;P1;durP1;ratioP1;P2;durP2;ratioP2
48588;SDS011;34369;51.174;6.738;2023-06-22T00:00:28;22.30;;;20.60;;
48588;SDS011;34369;51.174;6.738;2023-06-22T00:03:01;21.88;;;20.27;;
48588;SDS011;34369;51.174;6.738;2023-06-22T00:05:33;22.25;;;20.65;;
48588;SDS011;34369;51.174;6.738;2023-06-22T00:08:05;22.17;;;20.58;;
48588;SDS011;34369;51.174;6.738;2023-06-22T00:10:39;22.73;;;21.02;;
48588;SDS011;34369;51.174;6.738;2023-06-22T00:13:13;23.27;;;21.27;;
48588;SDS011;34369;51.174;6.738;2023-06-22T00:15:47;22.67;;;20.88;;
48588;SDS011;34369;51.174;6.738;2023-06-22T00:18:26;22.98;;;21.27;;
48588;SDS011;34369;51.174;6.738;2023-06-22T00:21:00;22.48;;;20.77;;
48588;SDS011;34369;51.174;6.738;2023-06-22T00:23:33;22.38;;;20.75;;
48588;SDS011;34369;51.174;6.738;2023-06-22T00:26:05;22.75;;;21.05;;
48588;SDS011;34369;51.174;6.738;2023-06-22T00:28:38;22.55;;;20.60;;
48588;SDS011;34369;51.174;6.738;2023-06-22T00:31:10;22.65;;;20.95;;
48588;SDS011;34369;51.174;6.738;2023-06-22T00:33:43;22.60;;;20.90;;
48588;SDS011;34369;51.174;6.738;2023-06-22T00:36:15;22.75;;;21.15;;
48588;SDS011;34369;51.174;6.738;2023-06-22T00:38:47;22.85;;;21.15;;
48588;SDS011;34369;51.174;6.738;2023-06-22T00:41:20;22.30;;;20.70;;
48588;SDS011;34369;51.174;6.738;2023-06-22T00:43:54;22.63;;;20.92;;
48588;SDS011;34369;51.174;6.738;2023-06-22T00:46:26;22.77;;;21.08;;
48588;SDS011;34369;51.174;6.738;2023-06-22T00:48:58;22.40;;;20.70;;
48588;SDS011;34369;51.174;6.738;2023-06-22T00:51:31;22.92;;;21.23;;
48588;SDS011;34369;51.174;6.738;2023-06-22T00:54:04;22.55;;;20.92;;
48588;SDS011;34369;51.174;6.738;2023-06-22T00:56:36;23.20;;;21.50;;
48588;SDS011;34369;51.174;6.738;2023-06-22T00:59:10;22.65;;;21.00;;
48588;SDS011;34369;51.174;6.738;2023-06-22T01:01:43;22.65;;;20.92;;
48588;SDS011;34369;51.174;6.738;2023-06-22T01:04:16;22.63;;;20.92;;
48588;SDS011;34369;51.174;6.738;2023-06-22T01:06:51;23.30;;;21.50;;
48588;SDS011;34369;51.174;6.738;2023-06-22T01:09:35;22.52;;;20.80;;
48588;SDS011;34369;51.174;6.738;2023-06-22T01:12:17;22.55;;;20.88;;
48588;SDS011;34369;51.174;6.738;2023-06-22T01:14:54;23.10;;;21.45;;
48588;SDS011;34369;51.174;6.738;2023-06-22T01:17:34;22.60;;;20.90;;
48588;SDS011;34369;51.174;6.738;2023-06-22T01:20:07;23.05;;;21.35;;
48588;SDS011;34369;51.174;6.738;2023-06-22T01:22:45;22.50;;;20.80;;
48588;SDS011;34369;51.174;6.738;2023-06-22T01:25:41;22.80;;;21.05;;
48588;SDS011;34369;51.174;6.738;2023-06-22T01:28:22;23.25;;;21.55;;
48588;SDS011;34369;51.174;6.738;2023-06-22T01:31:13;23.10;;;21.40;;
48588;SDS011;34369;51.174;6.738;2023-06-22T01:33:49;23.85;;;22.15;;
48588;SDS011;34369;51.174;6.738;2023-06-22T01:36:24;23.40;;;21.60;;
48588;SDS011;34369;51.174;6.738;2023-06-22T01:38:58;24.27;;;22.48;;
48588;SDS011;34369;51.174;6.738;2023-06-22T01:41:32;23.95;;;22.20;;
48588;SDS011;34369;51.174;6.738;2023-06-22T01:44:09;23.85;;;22.05;;
48588;SDS011;34369;51.174;6.738;2023-06-22T01:46:43;23.08;;;21.38;;
48588;SDS011;34369;51.174;6.738;2023-06-22T01:49:16;23.30;;;21.60;;
48588;SDS011;34369;51.174;6.738;2023-06-22T01:51:48;23.60;;;21.90;;
48588;SDS011;34369;51.174;6.738;2023-06-22T01:54:20;23.50;;;21.75;;
48588;SDS011;34369;51.174;6.738;2023-06-22T01:56:52;23.85;;;22.15;;
48588;SDS011;34369;51.174;6.738;2023-06-22T01:59:26;23.42;;;21.63;;
48588;SDS011;34369;51.174;6.738;2023-06-22T02:02:06;23.88;;;22.00;;
48588;SDS011;34369;51.174;6.738;2023-06-22T02:04:42;24.27;;;22.47;;
48588;SDS011;34369;51.174;6.738;2023-06-22T02:07:19;24.20;;;22.40;;
48588;SDS011;34369;51.174;6.738;2023-06-22T02:09:55;23.57;;;21.77;;
48588;SDS011;34369;51.174;6.738;2023-06-22T02:12:28;24.65;;;22.52;;
48588;SDS011;34369;51.174;6.738;2023-06-22T02:15:04;23.85;;;21.92;;
48588;SDS011;34369;51.174;6.738;2023-06-22T02:17:37;23.73;;;22.02;;
48588;SDS011;34369;51.174;6.738;2023-06-22T02:20:11;23.67;;;21.98;;
48588;SDS011;34369;51.174;6.738;2023-06-22T02:22:44;23.95;;;22.13;;
48588;SDS011;34369;51.174;6.738;2023-06-22T02:25:16;24.20;;;22.30;;
48588;SDS011;34369;51.174;6.738;2023-06-22T02:27:49;24.27;;;22.48;;
48588;SDS011;34369;51.174;6.738;2023-06-22T02:30:22;24.85;;;23.05;;
48588;SDS011;34369;51.174;6.738;2023-06-22T02:32:54;24.13;;;22.33;;
48588;SDS011;34369;51.174;6.738;2023-06-22T02:35:29;24.42;;;22.58;;
48588;SDS011;34369;51.174;6.738;2023-06-22T02:38:02;24.42;;;22.63;;
48588;SDS011;34369;51.174;6.738;2023-06-22T02:40:35;24.02;;;22.23;;
48588;SDS011;34369;51.174;6.738;2023-06-22T02:43:07;24.55;;;22.63;;
48588;SDS011;34369;51.174;6.738;2023-06-22T02:45:40;24.38;;;22.27;;
48588;SDS011;34369;51.174;6.738;2023-06-22T02:48:12;25.00;;;23.00;;
48588;SDS011;34369;51.174;6.738;2023-06-22T02:50:45;24.67;;;22.88;;
48588;SDS011;34369;51.174;6.738;2023-06-22T02:53:17;24.30;;;22.45;;
48588;SDS011;34369;51.174;6.738;2023-06-22T02:55:50;23.95;;;22.15;;
48588;SDS011;34369;51.174;6.738;2023-06-22T02:58:23;24.55;;;22.73;;
48588;SDS011;34369;51.174;6.738;2023-06-22T03:00:56;24.17;;;22.33;;
48588;SDS011;34369;51.174;6.738;2023-06-22T03:03:34;24.25;;;22.45;;
48588;SDS011;34369;51.174;6.738;2023-06-22T03:06:06;24.67;;;22.77;;
48588;SDS011;34369;51.174;6.738;2023-06-22T03:08:44;24.13;;;22.33;;
48588;SDS011;34369;51.174;6.738;2023-06-22T03:11:16;24.63;;;22.83;;
48588;SDS011;34369;51.174;6.738;2023-06-22T03:13:47;24.13;;;22.33;;
48588;SDS011;34369;51.174;6.738;2023-06-22T03:16:23;24.40;;;22.50;;
48588;SDS011;34369;51.174;6.738;2023-06-22T03:18:55;24.13;;;22.33;;
48588;SDS011;34369;51.174;6.738;2023-06-22T03:21:27;24.92;;;23.02;;
48588;SDS011;34369;51.174;6.738;2023-06-22T03:24:00;24.45;;;22.65;;
48588;SDS011;34369;51.174;6.738;2023-06-22T03:26:32;24.80;;;22.90;;
48588;SDS011;34369;51.174;6.738;2023-06-22T03:29:04;25.10;;;23.17;;
48588;SDS011;34369;51.174;6.738;2023-06-22T03:31:37;25.15;;;23.25;;
48588;SDS011;34369;51.174;6.738;2023-06-22T03:34:09;25.48;;;23.55;;
48588;SDS011;34369;51.174;6.738;2023-06-22T03:36:41;25.38;;;23.50;;
48588;SDS011;34369;51.174;6.738;2023-06-22T03:39:15;24.65;;;22.85;;
48588;SDS011;34369;51.174;6.738;2023-06-22T03:41:47;25.77;;;23.67;;
48588;SDS011;34369;51.174;6.738;2023-06-22T03:44:19;25.15;;;23.15;;
48588;SDS011;34369;51.174;6.738;2023-06-22T03:46:52;25.58;;;23.65;;
48588;SDS011;34369;51.174;6.738;2023-06-22T03:49:25;26.20;;;24.00;;
48588;SDS011;34369;51.174;6.738;2023-06-22T03:51:57;25.25;;;23.33;;
48588;SDS011;34369;51.174;6.738;2023-06-22T03:54:29;24.88;;;23.08;;
48588;SDS011;34369;51.174;6.738;2023-06-22T03:57:01;25.38;;;23.38;;
48588;SDS011;34369;51.174;6.738;2023-06-22T03:59:34;25.55;;;23.63;;
48588;SDS011;34369;51.174;6.738;2023-06-22T04:02:08;25.00;;;23.00;;
48588;SDS011;34369;51.174;6.738;2023-06-22T04:04:40;24.58;;;22.70;;
48588;SDS011;34369;51.174;6.738;2023-06-22T04:07:12;25.75;;;23.75;;
48588;SDS011;34369;51.174;6.738;2023-06-22T04:09:44;25.30;;;23.40;;
48588;SDS011;34369;51.174;6.738;2023-06-22T04:12:16;24.70;;;22.88;;
48588;SDS011;34369;51.174;6.738;2023-06-22T04:14:48;25.00;;;23.00;;
48588;SDS011;34369;51.174;6.738;2023-06-22T04:17:22;24.80;;;22.90;;
48588;SDS011;34369;51.174;6.738;2023-06-22T04:19:55;25.50;;;23.60;;
48588;SDS011;34369;51.174;6.738;2023-06-22T04:22:27;25.77;;;23.77;;
48588;SDS011;34369;51.174;6.738;2023-06-22T04:24:59;25.08;;;23.20;;
48588;SDS011;34369;51.174;6.738;2023-06-22T04:27:30;24.92;;;23.02;;
48588;SDS011;34369;51.174;6.738;2023-06-22T04:30:03;25.90;;;24.00;;
48588;SDS011;34369;51.174;6.738;2023-06-22T04:32:38;25.73;;;23.73;;
48588;SDS011;34369;51.174;6.738;2023-06-22T04:35:11;25.90;;;23.90;;
48588;SDS011;34369;51.174;6.738;2023-06-22T04:37:43;25.17;;;23.20;;
48588;SDS011;34369;51.174;6.738;2023-06-22T04:40:18;25.23;;;23.33;;
48588;SDS011;34369;51.174;6.738;2023-06-22T04:42:50;26.17;;;24.17;;
48588;SDS011;34369;51.174;6.738;2023-06-22T04:45:25;24.63;;;22.83;;
48588;SDS011;34369;51.174;6.738;2023-06-22T04:47:58;25.33;;;23.42;;
48588;SDS011;34369;51.174;6.738;2023-06-22T04:50:30;24.52;;;22.50;;
48588;SDS011;34369;51.174;6.738;2023-06-22T04:53:03;24.58;;;22.58;;
48588;SDS011;34369;51.174;6.738;2023-06-22T04:55:35;25.08;;;23.17;;
48588;SDS011;34369;51.174;6.738;2023-06-22T04:58:11;25.17;;;23.17;;
48588;SDS011;34369;51.174;6.738;2023-06-22T05:00:43;25.00;;;22.98;;
48588;SDS011;34369;51.174;6.738;2023-06-22T05:03:17;24.85;;;23.05;;
48588;SDS011;34369;51.174;6.738;2023-06-22T05:05:49;25.55;;;23.48;;
48588;SDS011;34369;51.174;6.738;2023-06-22T05:08:21;24.95;;;23.15;;
48588;SDS011;34369;51.174;6.738;2023-06-22T05:10:56;25.20;;;23.20;;
48588;SDS011;34369;51.174;6.738;2023-06-22T05:13:28;25.05;;;22.95;;
48588;SDS011;34369;51.174;6.738;2023-06-22T05:16:00;25.23;;;23.33;;
48588;SDS011;34369;51.174;6.738;2023-06-22T05:18:34;24.95;;;22.95;;
48588;SDS011;34369;51.174;6.738;2023-06-22T05:21:06;25.40;;;23.30;;
48588;SDS011;34369;51.174;6.738;2023-06-22T05:23:38;25.13;;;23.08;;
48588;SDS011;34369;51.174;6.738;2023-06-22T05:26:10;25.10;;;23.13;;
48588;SDS011;34369;51.174;6.738;2023-06-22T05:28:42;23.83;;;22.00;;
48588;SDS011;34369;51.174;6.738;2023-06-22T05:31:16;24.23;;;22.42;;
48588;SDS011;34369;51.174;6.738;2023-06-22T05:33:51;23.73;;;21.92;;
48588;SDS011;34369;51.174;6.738;2023-06-22T05:36:24;24.67;;;22.88;;
48588;SDS011;34369;51.174;6.738;2023-06-22T05:38:56;24.45;;;22.65;;
48588;SDS011;34369;51.174;6.738;2023-06-22T05:41:29;24.90;;;22.90;;
48588;SDS011;34369;51.174;6.738;2023-06-22T05:44:01;25.48;;;23.25;;
48588;SDS011;34369;51.174;6.738;2023-06-22T05:46:33;24.83;;;22.83;;
48588;SDS011;34369;51.174;6.738;2023-06-22T05:49:07;23.77;;;21.88;;
48588;SDS011;34369;51.174;6.738;2023-06-22T05:51:39;23.90;;;22.10;;
48588;SDS011;34369;51.174;6.738;2023-06-22T05:54:11;24.20;;;22.33;;
48588;SDS011;34369;51.174;6.738;2023-06-22T05:56:45;23.58;;;21.77;;
48588;SDS011;34369;51.174;6.738;2023-06-22T05:59:17;23.25;;;21.55;;
48588;SDS011;34369;51.174;6.738;2023-06-22T06:01:50;23.38;;;21.58;;
48588;SDS011;34369;51.174;6.738;2023-06-22T06:04:23;25.02;;;23.02;;
48588;SDS011;34369;51.174;6.738;2023-06-22T06:06:57;24.50;;;22.60;;
48588;SDS011;34369;51.174;6.738;2023-06-22T06:09:30;25.33;;;23.13;;
48588;SDS011;34369;51.174;6.738;2023-06-22T06:12:06;24.42;;;22.58;;
48588;SDS011;34369;51.174;6.738;2023-06-22T06:14:39;25.05;;;22.90;;
48588;SDS011;34369;51.174;6.738;2023-06-22T06:17:11;25.15;;;23.08;;
48588;SDS011;34369;51.174;6.738;2023-06-22T06:19:44;24.75;;;22.85;;
48588;SDS011;34369;51.174;6.738;2023-06-22T06:22:16;24.63;;;22.52;;
48588;SDS011;34369;51.174;6.738;2023-06-22T06:24:51;25.38;;;23.33;;
48588;SDS011;34369;51.174;6.738;2023-06-22T06:27:23;24.52;;;22.67;;
48588;SDS011;34369;51.174;6.738;2023-06-22T06:29:59;24.40;;;22.38;;
48588;SDS011;34369;51.174;6.738;2023-06-22T06:32:31;23.83;;;21.83;;
48588;SDS011;34369;51.174;6.738;2023-06-22T06:35:05;25.05;;;23.05;;
48588;SDS011;34369;51.174;6.738;2023-06-22T06:37:39;24.60;;;22.67;;
48588;SDS011;34369;51.174;6.738;2023-06-22T06:40:12;24.55;;;22.63;;
48588;SDS011;34369;51.174;6.738;2023-06-22T06:42:49;24.42;;;22.67;;
48588;SDS011;34369;51.174;6.738;2023-06-22T06:45:22;24.48;;;22.42;;
48588;SDS011;34369;51.174;6.738;2023-06-22T06:47:55;23.95;;;22.15;;
48588;SDS011;34369;51.174;6.738;2023-06-22T06:50:32;23.98;;;22.17;;
48588;SDS011;34369;51.174;6.738;2023-06-22T06:53:04;25.05;;;23.05;;
48588;SDS011;34369;51.174;6.738;2023-06-22T06:55:36;24.30;;;22.45;;
48588;SDS011;34369;51.174;6.738;2023-06-22T06:58:09;25.80;;;23.70;;
48588;SDS011;34369;51.174;6.738;2023-06-22T07:00:44;25.38;;;23.27;;
48588;SDS011;34369;51.174;6.738;2023-06-22T07:03:17;25.08;;;23.15;;
48588;SDS011;34369;51.174;6.738;2023-06-22T07:05:52;25.42;;;23.42;;
48588;SDS011;34369;51.174;6.738;2023-06-22T07:08:24;25.92;;;24.02;;
48588;SDS011;34369;51.174;6.738;2023-06-22T07:10:57;26.98;;;24.77;;
48588;SDS011;34369;51.174;6.738;2023-06-22T07:13:31;27.10;;;25.00;;
48588;SDS011;34369;51.174;6.738;2023-06-22T07:16:04;26.77;;;24.67;;
48588;SDS011;34369;51.174;6.738;2023-06-22T07:18:36;26.27;;;24.20;;
48588;SDS011;34369;51.174;6.738;2023-06-22T07:21:12;26.65;;;24.50;;
48588;SDS011;34369;51.174;6.738;2023-06-22T07:23:45;26.27;;;24.13;;
48588;SDS011;34369;51.174;6.738;2023-06-22T07:26:17;25.85;;;23.90;;
48588;SDS011;34369;51.174;6.738;2023-06-22T07:28:49;27.33;;;24.95;;
48588;SDS011;34369;51.174;6.738;2023-06-22T07:33:58;26.55;;;24.45;;
48588;SDS011;34369;51.174;6.738;2023-06-22T07:36:31;26.90;;;24.60;;
48588;SDS011;34369;51.174;6.738;2023-06-22T07:39:05;26.53;;;24.43;;
48588;SDS011;34369;51.174;6.738;2023-06-22T07:41:38;26.60;;;24.60;;
48588;SDS011;34369;51.174;6.738;2023-06-22T07:44:11;26.25;;;24.15;;
48588;SDS011;34369;51.174;6.738;2023-06-22T07:46:44;26.30;;;24.13;;
48588;SDS011;34369;51.174;6.738;2023-06-22T07:49:17;26.73;;;24.73;;
48588;SDS011;34369;51.174;6.738;2023-06-22T07:51:54;26.85;;;24.52;;
48588;SDS011;34369;51.174;6.738;2023-06-22T07:54:41;27.27;;;25.10;;
48588;SDS011;34369;51.174;6.738;2023-06-22T07:57:14;26.05;;;24.00;;
48588;SDS011;34369;51.174;6.738;2023-06-22T07:59:46;26.33;;;24.13;;
48588;SDS011;34369;51.174;6.738;2023-06-22T08:02:18;26.48;;;24.08;;
48588;SDS011;34369;51.174;6.738;2023-06-22T08:04:51;25.25;;;23.08;;
48588;SDS011;34369;51.174;6.738;2023-06-22T08:07:25;25.13;;;23.02;;
48588;SDS011;34369;51.174;6.738;2023-06-22T08:09:58;24.70;;;22.65;;
48588;SDS011;34369;51.174;6.738;2023-06-22T08:12:31;23.63;;;21.52;;
48588;SDS011;34369;51.174;6.738;2023-06-22T08:15:04;23.77;;;21.77;;
48588;SDS011;34369;51.174;6.738;2023-06-22T08:17:39;23.20;;;21.30;;
48588;SDS011;34369;51.174;6.738;2023-06-22T08:20:13;22.52;;;20.63;;
48588;SDS011;34369;51.174;6.738;2023-06-22T08:22:47;24.17;;;22.17;;
48588;SDS011;34369;51.174;6.738;2023-06-22T08:25:19;23.95;;;21.92;;
48588;SDS011;34369;51.174;6.738;2023-06-22T08:27:54;23.73;;;21.83;;
48588;SDS011;34369;51.174;6.738;2023-06-22T08:30:27;22.55;;;20.75;;
48588;SDS011;34369;51.174;6.738;2023-06-22T08:33:00;23.30;;;21.50;;
48588;SDS011;34369;51.174;6.738;2023-06-22T08:35:33;23.23;;;21.33;;
48588;SDS011;34369;51.174;6.738;2023-06-22T08:38:07;23.35;;;21.42;;
48588;SDS011;34369;51.174;6.738;2023-06-22T08:40:39;23.60;;;21.63;;
48588;SDS011;34369;51.174;6.738;2023-06-22T08:43:12;22.67;;;20.88;;
48588;SDS011;34369;51.174;6.738;2023-06-22T08:45:45;21.98;;;20.20;;
48588;SDS011;34369;51.174;6.738;2023-06-22T08:48:18;22.05;;;20.30;;
48588;SDS011;34369;51.174;6.738;2023-06-22T08:50:50;21.73;;;19.95;;
48588;SDS011;34369;51.174;6.738;2023-06-22T08:53:24;21.17;;;19.38;;
48588;SDS011;34369;51.174;6.738;2023-06-22T08:55:56;21.40;;;19.55;;
48588;SDS011;34369;51.174;6.738;2023-06-22T08:58:31;21.02;;;19.33;;
48588;SDS011;34369;51.174;6.738;2023-06-22T09:01:03;21.10;;;19.30;;
48588;SDS011;34369;51.174;6.738;2023-06-22T09:03:37;20.25;;;18.55;;
48588;SDS011;34369;51.174;6.738;2023-06-22T09:06:09;20.25;;;18.55;;
48588;SDS011;34369;51.174;6.738;2023-06-22T09:08:46;19.98;;;18.17;;
48588;SDS011;34369;51.174;6.738;2023-06-22T09:11:19;20.05;;;18.42;;
48588;SDS011;34369;51.174;6.738;2023-06-22T09:13:51;20.17;;;18.38;;
48588;SDS011;34369;51.174;6.738;2023-06-22T09:16:23;20.70;;;18.98;;
48588;SDS011;34369;51.174;6.738;2023-06-22T09:18:56;19.98;;;18.27;;
48588;SDS011;34369;51.174;6.738;2023-06-22T09:21:28;20.08;;;18.48;;
48588;SDS011;34369;51.174;6.738;2023-06-22T09:24:02;19.92;;;18.33;;
48588;SDS011;34369;51.174;6.738;2023-06-22T09:26:35;20.45;;;18.75;;
48588;SDS011;34369;51.174;6.738;2023-06-22T09:29:07;20.35;;;18.65;;
48588;SDS011;34369;51.174;6.738;2023-06-22T09:31:40;20.58;;;18.88;;
48588;SDS011;34369;51.174;6.738;2023-06-22T09:34:13;20.17;;;18.48;;
48588;SDS011;34369;51.174;6.738;2023-06-22T09:36:45;19.95;;;18.30;;
48588;SDS011;34369;51.174;6.738;2023-06-22T09:39:19;20.20;;;18.60;;
48588;SDS011;34369;51.174;6.738;2023-06-22T09:41:52;19.88;;;18.27;;
48588;SDS011;34369;51.174;6.738;2023-06-22T09:44:25;20.63;;;19.02;;
48588;SDS011;34369;51.174;6.738;2023-06-22T09:46:57;20.25;;;18.65;;
48588;SDS011;34369;51.174;6.738;2023-06-22T09:49:31;19.92;;;18.33;;
48588;SDS011;34369;51.174;6.738;2023-06-22T09:52:03;19.45;;;17.85;;
48588;SDS011;34369;51.174;6.738;2023-06-22T09:54:38;19.55;;;17.95;;
48588;SDS011;34369;51.174;6.738;2023-06-22T09:57:10;20.00;;;18.30;;
48588;SDS011;34369;51.174;6.738;2023-06-22T09:59:42;18.67;;;17.17;;
48588;SDS011;34369;51.174;6.738;2023-06-22T10:02:15;20.17;;;18.48;;
48588;SDS011;34369;51.174;6.738;2023-06-22T10:04:47;19.48;;;17.98;;
48588;SDS011;34369;51.174;6.738;2023-06-22T10:07:19;19.60;;;18.10;;
48588;SDS011;34369;51.174;6.738;2023-06-22T10:09:53;19.95;;;18.35;;
48588;SDS011;34369;51.174;6.738;2023-06-22T10:12:27;19.25;;;17.75;;
48588;SDS011;34369;51.174;6.738;2023-06-22T10:14:59;21.02;;;19.33;;
48588;SDS011;34369;51.174;6.738;2023-06-22T10:17:31;20.25;;;18.65;;
48588;SDS011;34369;51.174;6.738;2023-06-22T10:20:04;20.65;;;18.85;;
48588;SDS011;34369;51.174;6.738;2023-06-22T10:22:42;20.42;;;18.83;;
48588;SDS011;34369;51.174;6.738;2023-06-22T10:25:17;20.85;;;19.05;;
48588;SDS011;34369;51.174;6.738;2023-06-22T10:27:50;19.77;;;18.17;;
48588;SDS011;34369;51.174;6.738;2023-06-22T10:30:23;21.25;;;19.63;;
48588;SDS011;34369;51.174;6.738;2023-06-22T10:32:55;20.75;;;19.15;;
48588;SDS011;34369;51.174;6.738;2023-06-22T10:35:29;21.20;;;19.50;;
48588;SDS011;34369;51.174;6.738;2023-06-22T10:38:01;21.17;;;19.58;;
48588;SDS011;34369;51.174;6.738;2023-06-22T10:40:34;21.67;;;19.88;;
48588;SDS011;34369;51.174;6.738;2023-06-22T10:43:07;21.38;;;19.48;;
48588;SDS011;34369;51.174;6.738;2023-06-22T10:45:40;21.95;;;20.25;;
48588;SDS011;34369;51.174;6.738;2023-06-22T10:48:13;21.50;;;19.70;;
48588;SDS011;34369;51.174;6.738;2023-06-22T10:50:46;21.85;;;20.13;;
48588;SDS011;34369;51.174;6.738;2023-06-22T10:53:20;21.50;;;19.70;;
48588;SDS011;34369;51.174;6.738;2023-06-22T10:55:54;22.05;;;20.25;;
48588;SDS011;34369;51.174;6.738;2023-06-22T10:58:27;22.70;;;20.88;;
48588;SDS011;34369;51.174;6.738;2023-06-22T11:00:59;23.02;;;21.13;;
48588;SDS011;34369;51.174;6.738;2023-06-22T11:03:33;24.30;;;22.10;;
48588;SDS011;34369;51.174;6.738;2023-06-22T11:06:05;24.65;;;22.65;;
48588;SDS011;34369;51.174;6.738;2023-06-22T11:08:37;24.83;;;22.70;;
48588;SDS011;34369;51.174;6.738;2023-06-22T11:11:13;24.48;;;22.38;;
48588;SDS011;34369;51.174;6.738;2023-06-22T11:13:48;25.48;;;23.38;;
48588;SDS011;34369;51.174;6.738;2023-06-22T11:16:20;25.88;;;23.67;;
48588;SDS011;34369;51.174;6.738;2023-06-22T11:18:52;24.52;;;22.58;;
48588;SDS011;34369;51.174;6.738;2023-06-22T11:21:25;25.50;;;23.40;;
48588;SDS011;34369;51.174;6.738;2023-06-22T11:23:57;25.33;;;23.20;;
48588;SDS011;34369;51.174;6.738;2023-06-22T11:26:32;25.08;;;22.88;;
48588;SDS011;34369;51.174;6.738;2023-06-22T11:29:05;24.38;;;22.45;;
48588;SDS011;34369;51.174;6.738;2023-06-22T11:31:38;24.90;;;22.63;;
48588;SDS011;34369;51.174;6.738;2023-06-22T11:34:13;24.88;;;22.88;;
48588;SDS011;34369;51.174;6.738;2023-06-22T11:36:47;25.42;;;23.35;;
48588;SDS011;34369;51.174;6.738;2023-06-22T11:39:23;26.50;;;24.30;;
48588;SDS011;34369;51.174;6.738;2023-06-22T11:41:59;26.98;;;24.88;;
48588;SDS011;34369;51.174;6.738;2023-06-22T11:44:34;26.98;;;24.85;;
48588;SDS011;34369;51.174;6.738;2023-06-22T11:47:13;27.13;;;24.85;;
48588;SDS011;34369;51.174;6.738;2023-06-22T11:49:49;27.15;;;24.85;;
48588;SDS011;34369;51.174;6.738;2023-06-22T11:52:23;28.33;;;25.92;;
48588;SDS011;34369;51.174;6.738;2023-06-22T11:54:57;28.23;;;25.85;;
48588;SDS011;34369;51.174;6.738;2023-06-22T11:57:35;27.38;;;25.17;;
48588;SDS011;34369;51.174;6.738;2023-06-22T12:00:10;27.38;;;25.17;;
48588;SDS011;34369;51.174;6.738;2023-06-22T12:02:48;27.52;;;25.23;;
48588;SDS011;34369;51.174;6.738;2023-06-22T12:05:21;27.98;;;25.67;;
48588;SDS011;34369;51.174;6.738;2023-06-22T12:07:55;27.55;;;25.25;;
48588;SDS011;34369;51.174;6.738;2023-06-22T12:10:28;27.00;;;24.90;;
48588;SDS011;34369;51.174;6.738;2023-06-22T12:13:02;26.80;;;24.60;;
48588;SDS011;34369;51.174;6.738;2023-06-22T12:15:36;26.80;;;24.70;;
48588;SDS011;34369;51.174;6.738;2023-06-22T12:18:09;27.42;;;25.13;;
48588;SDS011;34369;51.174;6.738;2023-06-22T12:20:44;27.77;;;25.57;;
48588;SDS011;34369;51.174;6.738;2023-06-22T12:23:17;27.42;;;25.27;;
48588;SDS011;34369;51.174;6.738;2023-06-22T12:25:49;28.80;;;26.50;;
48588;SDS011;34369;51.174;6.738;2023-06-22T12:28:24;30.75;;;28.05;;
48588;SDS011;34369;51.174;6.738;2023-06-22T12:30:58;31.33;;;28.73;;
48588;SDS011;34369;51.174;6.738;2023-06-22T12:33:31;32.65;;;29.80;;
48588;SDS011;34369;51.174;6.738;2023-06-22T12:36:04;30.73;;;28.23;;
48588;SDS011;34369;51.174;6.738;2023-06-22T12:38:38;30.60;;;28.08;;
48588;SDS011;34369;51.174;6.738;2023-06-22T12:41:11;33.53;;;30.63;;
48588;SDS011;34369;51.174;6.738;2023-06-22T12:43:53;31.17;;;28.58;;
48588;SDS011;34369;51.174;6.738;2023-06-22T12:46:29;31.88;;;29.30;;
48588;SDS011;34369;51.174;6.738;2023-06-22T12:49:07;31.65;;;29.05;;
48588;SDS011;34369;51.174;6.738;2023-06-22T12:51:41;31.65;;;28.95;;
48588;SDS011;34369;51.174;6.738;2023-06-22T12:56:51;30.13;;;27.65;;
48588;SDS011;34369;51.174;6.738;2023-06-22T12:59:26;30.80;;;28.30;;
48588;SDS011;34369;51.174;6.738;2023-06-22T13:01:58;30.88;;;28.20;;
48588;SDS011;34369;51.174;6.738;2023-06-22T13:04:31;31.38;;;28.77;;
48588;SDS011;34369;51.174;6.738;2023-06-22T13:07:03;31.30;;;28.75;;
48588;SDS011;34369;51.174;6.738;2023-06-22T13:09:36;31.45;;;28.88;;
48588;SDS011;34369;51.174;6.738;2023-06-22T13:12:08;31.45;;;28.75;;
48588;SDS011;34369;51.174;6.738;2023-06-22T13:14:43;32.40;;;29.58;;
48588;SDS011;34369;51.174;6.738;2023-06-22T13:17:16;30.20;;;27.73;;
48588;SDS011;34369;51.174;6.738;2023-06-22T13:19:49;31.85;;;29.25;;
48588;SDS011;34369;51.174;6.738;2023-06-22T13:22:29;33.10;;;30.15;;
48588;SDS011;34369;51.174;6.738;2023-06-22T13:25:09;31.60;;;28.95;;
48588;SDS011;34369;51.174;6.738;2023-06-22T13:27:43;32.38;;;29.67;;
48588;SDS011;34369;51.174;6.738;2023-06-22T13:30:18;29.98;;;27.52;;
48588;SDS011;34369;51.174;6.738;2023-06-22T13:32:50;30.25;;;27.75;;
48588;SDS011;34369;51.174;6.738;2023-06-22T13:35:23;30.20;;;27.60;;
48588;SDS011;34369;51.174;6.738;2023-06-22T13:37:55;31.63;;;28.92;;
48588;SDS011;34369;51.174;6.738;2023-06-22T13:40:27;32.00;;;29.40;;
48588;SDS011;34369;51.174;6.738;2023-06-22T13:43:00;32.58;;;29.95;;
48588;SDS011;34369;51.174;6.738;2023-06-22T13:45:36;33.60;;;30.73;;
48588;SDS011;34369;51.174;6.738;2023-06-22T13:48:09;34.05;;;31.08;;
48588;SDS011;34369;51.174;6.738;2023-06-22T13:50:41;32.17;;;29.38;;
48588;SDS011;34369;51.174;6.738;2023-06-22T13:53:14;33.50;;;30.52;;
48588;SDS011;34369;51.174;6.738;2023-06-22T13:55:46;31.30;;;28.77;;
48588;SDS011;34369;51.174;6.738;2023-06-22T13:58:18;32.22;;;29.52;;
48588;SDS011;34369;51.174;6.738;2023-06-22T14:00:52;32.22;;;29.52;;
48588;SDS011;34369;51.174;6.738;2023-06-22T14:03:24;32.90;;;30.27;;
48588;SDS011;34369;51.174;6.738;2023-06-22T14:05:56;32.38;;;29.65;;
48588;SDS011;34369;51.174;6.738;2023-06-22T14:08:28;32.53;;;29.83;;
48588;SDS011;34369;51.174;6.738;2023-06-22T14:11:01;30.83;;;28.33;;
48588;SDS011;34369;51.174;6.738;2023-06-22T14:13:34;30.48;;;27.98;;
48588;SDS011;34369;51.174;6.738;2023-06-22T14:16:08;31.33;;;28.65;;
48588;SDS011;34369;51.174;6.738;2023-06-22T14:18:40;31.13;;;28.63;;
48588;SDS011;34369;51.174;6.738;2023-06-22T14:21:13;29.95;;;27.55;;
48588;SDS011;34369;51.174;6.738;2023-06-22T14:23:45;30.17;;;27.63;;
48588;SDS011;34369;51.174;6.738;2023-06-22T14:26:19;29.10;;;26.65;;
48588;SDS011;34369;51.174;6.738;2023-06-22T14:28:52;29.38;;;27.08;;
48588;SDS011;34369;51.174;6.738;2023-06-22T14:31:28;29.60;;;27.00;;
48588;SDS011;34369;51.174;6.738;2023-06-22T14:34:00;29.95;;;27.65;;
48588;SDS011;34369;51.174;6.738;2023-06-22T14:36:35;30.30;;;27.90;;
48588;SDS011;34369;51.174;6.738;2023-06-22T14:39:08;30.88;;;28.42;;
48588;SDS011;34369;51.174;6.738;2023-06-22T14:41:41;30.10;;;27.70;;
48588;SDS011;34369;51.174;6.738;2023-06-22T14:44:15;30.75;;;28.00;;
48588;SDS011;34369;51.174;6.738;2023-06-22T14:46:48;31.05;;;28.40;;
48588;SDS011;34369;51.174;6.738;2023-06-22T14:49:21;31.17;;;28.70;;
48588;SDS011;34369;51.174;6.738;2023-06-22T14:51:53;31.15;;;28.55;;
48588;SDS011;34369;51.174;6.738;2023-06-22T14:54:27;30.67;;;28.02;;
48588;SDS011;34369;51.174;6.738;2023-06-22T14:56:59;30.33;;;27.90;;
48588;SDS011;34369;51.174;6.738;2023-06-22T14:59:32;31.08;;;28.55;;
48588;SDS011;34369;51.174;6.738;2023-06-22T15:02:05;30.83;;;28.33;;